M I D A S
Marine Information and Data Acquisition System
Tripno 1420 of the Zeeleeuw from 2008-01-30 07:56:28 to 2008-01-30 14:14:02
Back to CruiseResearch ActivitiesStationsMapUnderway DataData graphs

EquipmentUnitsComment
TimeDGPSUTC
LatitudeDGPSDM.mWGS84
LongitudeDGPSDM.mWGS84
HeadingGyrodeg 
SOGDGPSknotsSpeed over ground
COGDGPSdegCourse over ground
DepthEcho soundermeters200 kHz
Missing or incorrect values are displayed as -999
Navigation data collected by the RV Zeeleeuw from 2008-01-30 07:56:29 to 2008-01-30 14:25:45
                                                                                    Next 1000 lines
Time Latitude Longitude Heading SOG COG Depth
2008-01-30 07:56:39 51°13.664 2°55.954 125.6 0.1 195 8
2008-01-30 07:56:44 51°13.664 2°55.954 124.3 0.1 192 8
2008-01-30 07:56:49 51°13.664 2°55.954 122.8 0.2 193 8.1
2008-01-30 07:56:54 51°13.663 2°55.954 121 0.2 201 8.1
2008-01-30 07:56:59 51°13.663 2°55.954 119.3 0.2 196 8.1
2008-01-30 07:57:04 51°13.663 2°55.954 117.5 0.2 195 8.1
2008-01-30 07:57:09 51°13.663 2°55.954 115.6 0.2 201 8.1
2008-01-30 07:57:14 51°13.662 2°55.954 113.5 0.2 206 8.1
2008-01-30 07:57:19 51°13.662 2°55.954 111.6 0.2 206 8.1
2008-01-30 07:57:24 51°13.662 2°55.954 109.6 0.2 226 8.1
2008-01-30 07:57:29 51°13.662 2°55.953 107.6 0.2 237 8.2
2008-01-30 07:57:34 51°13.662 2°55.953 105.7 0.3 259 8.1
2008-01-30 07:57:39 51°13.661 2°55.952 104.1 0.5 254 8.1
2008-01-30 07:57:44 51°13.661 2°55.95 103.1 0.6 268 8.1
2008-01-30 07:57:49 51°13.661 2°55.949 102.9 0.8 262 8.2
2008-01-30 07:57:54 51°13.661 2°55.947 102.9 0.9 273 8.1
2008-01-30 07:57:59 51°13.661 2°55.944 103.2 1.1 267 8.1
2008-01-30 07:58:04 51°13.661 2°55.942 103.9 1.2 275 8.2
2008-01-30 07:58:09 51°13.662 2°55.939 104.7 1.4 272 8.2
2008-01-30 07:58:14 51°13.662 2°55.935 105.6 1.6 278 8.2
2008-01-30 07:58:19 51°13.662 2°55.931 106.8 1.9 278 -999
2008-01-30 07:58:24 51°13.663 2°55.927 108.2 2.2 282 -999
2008-01-30 07:58:29 51°13.664 2°55.921 109.1 2.5 283 -999
2008-01-30 07:58:34 51°13.665 2°55.916 110 2.8 285 -999
2008-01-30 07:58:39 51°13.666 2°55.909 110.8 3.1 286 -999
2008-01-30 07:58:44 51°13.668 2°55.902 111.3 3.3 288 -999
2008-01-30 07:58:49 51°13.669 2°55.895 111.9 3.6 288 -999
2008-01-30 07:58:54 51°13.671 2°55.887 112.2 3.8 289 -999
2008-01-30 07:58:59 51°13.673 2°55.878 112.5 4 289 -999
2008-01-30 07:59:04 51°13.674 2°55.87 112.5 4.1 290 -999
2008-01-30 07:59:09 51°13.676 2°55.861 112.5 4.3 289 -999
2008-01-30 07:59:14 51°13.678 2°55.852 112.5 4.4 290 -999
2008-01-30 07:59:19 51°13.68 2°55.842 112.5 4.5 289 -999
2008-01-30 07:59:24 51°13.682 2°55.833 112.5 4.6 290 -999
2008-01-30 07:59:29 51°13.684 2°55.823 112.6 4.7 290 -999
2008-01-30 07:59:34 51°13.687 2°55.813 112.7 4.7 289 -999
2008-01-30 07:59:39 51°13.689 2°55.803 112.8 4.8 289 -999
2008-01-30 07:59:44 51°13.691 2°55.793 112.8 4.9 289 -999
2008-01-30 07:59:49 51°13.694 2°55.783 112.8 5 289 -999
2008-01-30 07:59:54 51°13.696 2°55.772 113.2 5 289 -999
2008-01-30 07:59:59 51°13.698 2°55.762 113.5 4.8 289 -999
2008-01-30 08:00:04 51°13.7 2°55.753 113.8 4.5 289 -999
2008-01-30 08:00:09 51°13.702 2°55.744 114.3 4.1 288 -999
2008-01-30 08:00:14 51°13.703 2°55.737 115.2 3.3 287 -999
2008-01-30 08:00:19 51°13.704 2°55.732 115.6 2.4 282 14.2
2008-01-30 08:00:24 51°13.704 2°55.729 114.9 1.5 280 14.3
2008-01-30 08:00:29 51°13.704 2°55.728 114 0.5 242 14.6
2008-01-30 08:00:34 51°13.704 2°55.729 111.9 0.6 124 14.8
2008-01-30 08:00:39 51°13.703 2°55.732 107.7 1.4 107 14.6
2008-01-30 08:00:44 51°13.702 2°55.736 100.1 1.7 97 -999
2008-01-30 08:00:49 51°13.703 2°55.739 90.3 1.4 86 -999
2008-01-30 08:00:54 51°13.702 2°55.741 84.9 1.1 99 14.2
2008-01-30 08:00:59 51°13.702 2°55.743 83.2 0.7 109 14.2
2008-01-30 08:01:04 51°13.701 2°55.743 80.3 0.4 154 14.2
2008-01-30 08:01:09 51°13.701 2°55.742 77.6 0.8 214 14.2
2008-01-30 08:01:14 51°13.699 2°55.74 75.9 1.3 233 14.3
2008-01-30 08:01:19 51°13.698 2°55.736 75.1 1.8 238 14
2008-01-30 08:01:24 51°13.697 2°55.733 74.9 1.8 241 -999
2008-01-30 08:01:29 51°13.696 2°55.73 75.8 1.6 237 13.7
2008-01-30 08:01:34 51°13.695 2°55.728 77.2 1 236 13.9
2008-01-30 08:01:39 51°13.694 2°55.728 78.3 0.6 175 -999
2008-01-30 08:01:44 51°13.694 2°55.729 76.1 0.6 89 -999
2008-01-30 08:01:49 51°13.695 2°55.732 72.3 1.5 83 -999
2008-01-30 08:01:54 51°13.696 2°55.737 66.1 2.1 66 -999
2008-01-30 08:01:59 51°13.698 2°55.741 58.3 2.3 58 -999
2008-01-30 08:02:04 51°13.699 2°55.745 50.8 2.3 53 -999
2008-01-30 08:02:09 51°13.701 2°55.748 45.4 2 49 14.5
2008-01-30 08:02:14 51°13.703 2°55.751 42.6 1.6 55 14.6
2008-01-30 08:02:19 51°13.703 2°55.753 39.7 1.1 62 14.9
2008-01-30 08:02:24 51°13.703 2°55.755 37.1 0.6 90 14.9
2008-01-30 08:02:29 51°13.703 2°55.755 34.6 0.7 163 14.8
2008-01-30 08:02:34 51°13.701 2°55.755 32.7 1.2 185 14.9
2008-01-30 08:02:39 51°13.698 2°55.754 32.1 1.8 195 14.9
2008-01-30 08:02:44 51°13.695 2°55.752 32.3 2.2 198 5.2
2008-01-30 08:02:49 51°13.693 2°55.751 33.1 2.1 200 14.2
2008-01-30 08:02:54 51°13.69 2°55.749 35.5 1.9 199 -999
2008-01-30 08:02:59 51°13.688 2°55.749 38.1 1.4 194 -999
2008-01-30 08:03:04 51°13.687 2°55.749 39 0.7 167 -999
2008-01-30 08:03:09 51°13.688 2°55.75 37 0.5 76 -999
2008-01-30 08:03:14 51°13.689 2°55.752 32.2 1.2 42 -999
2008-01-30 08:03:19 51°13.691 2°55.754 25.7 1.9 29 -999
2008-01-30 08:03:24 51°13.695 2°55.756 17.8 2.5 17 -999
2008-01-30 08:03:29 51°13.699 2°55.757 10 3.1 9 -999
2008-01-30 08:03:34 51°13.704 2°55.757 2.2 3.5 357 -999
2008-01-30 08:03:39 51°13.709 2°55.755 354 3.9 348 -999
2008-01-30 08:03:44 51°13.715 2°55.752 345 4.4 339 -999
2008-01-30 08:03:49 51°13.721 2°55.746 337.7 5 329 14.6
2008-01-30 08:03:54 51°13.727 2°55.74 330.9 5.1 327 13.6
2008-01-30 08:03:59 51°13.733 2°55.733 327.9 5.3 324 -999
2008-01-30 08:04:04 51°13.739 2°55.726 325.3 5.5 323 -999
2008-01-30 08:04:09 51°13.745 2°55.719 325.6 5.4 324 11.4
2008-01-30 08:04:14 51°13.751 2°55.712 326.7 5.3 324 11.1
2008-01-30 08:04:19 51°13.757 2°55.705 327.3 5.2 324 11.1
2008-01-30 08:04:24 51°13.763 2°55.699 327.7 5.2 325 11.2
2008-01-30 08:04:29 51°13.769 2°55.692 328.2 5.1 326 -999
2008-01-30 08:04:34 51°13.774 2°55.686 329.1 5.1 327 10.8
2008-01-30 08:04:39 51°13.78 2°55.68 329.9 5.1 327 10.6
2008-01-30 08:04:44 51°13.786 2°55.674 330.5 5.1 329 10.7
2008-01-30 08:04:49 51°13.793 2°55.668 331.4 5.1 329 10.8
2008-01-30 08:04:54 51°13.799 2°55.662 332.2 5.2 330 11.2
2008-01-30 08:04:59 51°13.805 2°55.657 333.1 5.4 331 11.2
2008-01-30 08:05:04 51°13.812 2°55.651 334.1 5.6 333 11.2
2008-01-30 08:05:09 51°13.82 2°55.645 335.5 5.9 334 11.2
2008-01-30 08:05:14 51°13.827 2°55.639 336.7 6.2 334 11.7
2008-01-30 08:05:19 51°13.835 2°55.633 337 6.5 335 11.6
2008-01-30 08:05:24 51°13.844 2°55.627 337.3 6.7 335 11.4
2008-01-30 08:05:29 51°13.852 2°55.62 337.8 6.9 335 11.4
2008-01-30 08:05:34 51°13.861 2°55.613 337.7 7 334 11.4
2008-01-30 08:05:39 51°13.87 2°55.606 337.3 7.2 334 11.2
2008-01-30 08:05:44 51°13.879 2°55.599 337 7.3 335 11.4
2008-01-30 08:05:49 51°13.888 2°55.593 338.2 7.4 335 11.3
2008-01-30 08:05:54 51°13.898 2°55.586 338.8 7.5 336 11.3
2008-01-30 08:05:59 51°13.908 2°55.579 338.5 7.7 334 11.4
2008-01-30 08:06:04 51°13.917 2°55.572 338.2 7.8 337 11.4
2008-01-30 08:06:09 51°13.927 2°55.565 339.5 7.9 335 11.4
2008-01-30 08:06:14 51°13.937 2°55.557 339.3 8 335 11.3
2008-01-30 08:06:19 51°13.947 2°55.55 338.1 8 335 -999
2008-01-30 08:06:24 51°13.957 2°55.542 337.8 8.1 335 11.2
2008-01-30 08:06:29 51°13.968 2°55.535 338 8.1 335 11.2
2008-01-30 08:06:34 51°13.978 2°55.527 338.1 8.2 334 11.3
2008-01-30 08:06:39 51°13.988 2°55.519 337.8 8.2 335 11
2008-01-30 08:06:44 51°13.999 2°55.512 338.2 8.3 335 11.3
2008-01-30 08:06:49 51°14.009 2°55.504 338.2 8.3 334 10.8
2008-01-30 08:06:54 51°14.02 2°55.496 337.9 8.3 336 11
2008-01-30 08:06:59 51°14.03 2°55.489 338.6 8.3 336 10.8
2008-01-30 08:07:04 51°14.041 2°55.481 339.1 8.3 336 10.7
2008-01-30 08:07:09 51°14.051 2°55.474 339.1 8.3 335 10.8
2008-01-30 08:07:14 51°14.061 2°55.466 339.1 8.2 334 -999
2008-01-30 08:07:19 51°14.072 2°55.458 338.1 8.2 333 11.6
2008-01-30 08:07:24 51°14.082 2°55.45 337 8.2 334 11.1
2008-01-30 08:07:29 51°14.092 2°55.442 337.3 8.2 334 11.3
2008-01-30 08:07:34 51°14.102 2°55.434 338 8.2 335 11.4
2008-01-30 08:07:39 51°14.112 2°55.426 338.4 8.2 334 11
2008-01-30 08:07:44 51°14.123 2°55.419 338.7 8.2 335 11.4
2008-01-30 08:07:49 51°14.133 2°55.411 338.9 8.1 335 11.6
2008-01-30 08:07:54 51°14.143 2°55.403 338.6 8.1 334 11.6
2008-01-30 08:07:59 51°14.153 2°55.395 337.9 8.1 332 11.7
2008-01-30 08:08:04 51°14.163 2°55.386 335.9 8.1 331 11.7
2008-01-30 08:08:09 51°14.172 2°55.377 334.2 8 328 11.6
2008-01-30 08:08:14 51°14.182 2°55.367 332 8.3 327 11.8
2008-01-30 08:08:19 51°14.192 2°55.355 330.6 8.5 324 11.7
2008-01-30 08:08:24 51°14.201 2°55.344 328.4 8.7 322 11.7
2008-01-30 08:08:29 51°14.211 2°55.331 325.8 9.1 319 12.1
2008-01-30 08:08:34 51°14.22 2°55.316 322.9 9.3 316 11.7
2008-01-30 08:08:39 51°14.229 2°55.302 320.2 9.6 315 11.3
2008-01-30 08:08:44 51°14.239 2°55.286 318.6 9.9 315 11.7
2008-01-30 08:08:49 51°14.249 2°55.27 318.4 10.1 314 10.9
2008-01-30 08:08:54 51°14.258 2°55.254 318.1 10.2 313 11.1
2008-01-30 08:08:59 51°14.268 2°55.237 317.8 10.3 312 11.2
2008-01-30 08:09:04 51°14.277 2°55.218 316.2 10.5 309 11.1
2008-01-30 08:09:09 51°14.286 2°55.2 314.3 10.6 309 10.8
2008-01-30 08:09:14 51°14.295 2°55.182 313.9 10.6 307 10.8
2008-01-30 08:09:19 51°14.304 2°55.163 313 10.7 306 10.6
2008-01-30 08:09:24 51°14.313 2°55.143 311.4 10.8 305 10.9
2008-01-30 08:09:29 51°14.321 2°55.124 310.6 10.8 306 11.1
2008-01-30 08:09:34 51°14.33 2°55.104 310.8 10.8 304 11.2
2008-01-30 08:09:39 51°14.338 2°55.084 309.9 10.9 303 11.1
2008-01-30 08:09:44 51°14.346 2°55.064 307.6 11 302 11.3
2008-01-30 08:09:49 51°14.354 2°55.043 307 11 301 11
2008-01-30 08:09:54 51°14.362 2°55.022 306.8 11 302 10.9
2008-01-30 08:09:59 51°14.37 2°55.001 306.9 11.1 300 10.7
2008-01-30 08:10:04 51°14.377 2°54.979 306.6 11.2 300 10.6
2008-01-30 08:10:09 51°14.385 2°54.958 305.6 11 299 10.7
2008-01-30 08:10:14 51°14.392 2°54.936 305.1 11.1 297 11.2
2008-01-30 08:10:19 51°14.398 2°54.914 304.4 11.1 296 11.1
2008-01-30 08:10:24 51°14.405 2°54.892 302.3 11.1 296 11.3
2008-01-30 08:10:29 51°14.412 2°54.87 302.3 11.1 295 11.6
2008-01-30 08:10:34 51°14.418 2°54.847 301.6 11.1 294 11.4
2008-01-30 08:10:39 51°14.424 2°54.824 300.5 11.4 294 11.6
2008-01-30 08:10:44 51°14.431 2°54.801 300 11.6 293 11.8
2008-01-30 08:10:49 51°14.437 2°54.777 299.8 11.5 294 11.4
2008-01-30 08:10:54 51°14.443 2°54.754 299.1 11.6 294 11.5
2008-01-30 08:10:59 51°14.451 2°54.731 299.7 11.7 296 11.6
2008-01-30 08:11:04 51°14.459 2°54.708 301.2 11.7 300 11.7
2008-01-30 08:11:09 51°14.468 2°54.687 303.5 11.6 303 11.5
2008-01-30 08:11:14 51°14.477 2°54.666 307.2 11.6 307 11.7
2008-01-30 08:11:19 51°14.488 2°54.647 312 11.4 312 11.4
2008-01-30 08:11:24 51°14.499 2°54.63 316.3 11.5 316 11.6
2008-01-30 08:11:29 51°14.511 2°54.612 319.3 11.5 316 11.6
2008-01-30 08:11:34 51°14.523 2°54.596 321.6 11.5 321 11.7
2008-01-30 08:11:39 51°14.536 2°54.581 323.7 11.5 325 11.4
2008-01-30 08:11:44 51°14.55 2°54.569 327.1 11.4 330 11.5
2008-01-30 08:11:49 51°14.564 2°54.558 332.4 11.3 334 11.7
2008-01-30 08:11:54 51°14.579 2°54.548 337.5 11.4 336 11.5
2008-01-30 08:11:59 51°14.593 2°54.537 340.1 11.2 334 11
2008-01-30 08:12:04 51°14.607 2°54.527 340.1 11.3 334 11.2
2008-01-30 08:12:09 51°14.621 2°54.515 339.3 11.3 333 11.2
2008-01-30 08:12:14 51°14.635 2°54.504 338.2 11.4 333 11.3
2008-01-30 08:12:19 51°14.649 2°54.492 338.2 11.4 333 11
2008-01-30 08:12:24 51°14.663 2°54.481 337.9 11.3 333 10.8
2008-01-30 08:12:29 51°14.677 2°54.469 337.6 11.3 332 11.1
2008-01-30 08:12:34 51°14.691 2°54.457 337 11.3 333 11.2
2008-01-30 08:12:39 51°14.705 2°54.446 336.6 11.5 333 11
2008-01-30 08:12:44 51°14.719 2°54.434 337.5 11.4 332 10.7
2008-01-30 08:12:49 51°14.733 2°54.422 337 11.5 332 10.9
2008-01-30 08:12:54 51°14.747 2°54.41 336.6 11.4 333 10.7
2008-01-30 08:12:59 51°14.761 2°54.399 336.4 11.5 334 11.2
2008-01-30 08:13:04 51°14.775 2°54.389 336.9 11.2 334 10.5
2008-01-30 08:13:09 51°14.789 2°54.378 338.1 11.2 334 10.6
2008-01-30 08:13:14 51°14.803 2°54.367 337.9 11.2 333 10.8
2008-01-30 08:13:19 51°14.817 2°54.355 337.8 11.4 332 11
2008-01-30 08:13:24 51°14.831 2°54.343 337.3 11.2 332 10.2
2008-01-30 08:13:29 51°14.844 2°54.332 336.7 11.3 332 10.4
2008-01-30 08:13:34 51°14.859 2°54.32 336.7 11.3 333 10.5
2008-01-30 08:13:39 51°14.872 2°54.309 337.2 11.2 332 10.4
2008-01-30 08:13:44 51°14.886 2°54.297 337.3 11.4 333 10.6
2008-01-30 08:13:49 51°14.901 2°54.286 337.5 11.3 333 10.1
2008-01-30 08:13:54 51°14.915 2°54.276 337.5 11.3 334 10.3
2008-01-30 08:13:59 51°14.929 2°54.265 337.2 11.3 335 10
2008-01-30 08:14:04 51°14.942 2°54.254 338.2 11.1 334 9.6
2008-01-30 08:14:09 51°14.956 2°54.243 338.1 11.2 333 9.9
2008-01-30 08:14:14 51°14.97 2°54.231 337.4 11.3 332 9.7
2008-01-30 08:14:19 51°14.984 2°54.219 337.3 11.5 332 9.7
2008-01-30 08:14:24 51°14.998 2°54.208 336.9 11.3 332 9.4
2008-01-30 08:14:29 51°15.012 2°54.197 336.7 11.4 333 9.8
2008-01-30 08:14:34 51°15.026 2°54.185 337.2 11.5 333 9.8
2008-01-30 08:14:39 51°15.041 2°54.174 337.2 11.6 334 9.6
2008-01-30 08:14:44 51°15.055 2°54.162 337.7 11.6 332 9.7
2008-01-30 08:14:49 51°15.069 2°54.15 337.5 11.6 333 9.7
2008-01-30 08:14:54 51°15.084 2°54.138 337.5 11.7 333 10.1
2008-01-30 08:14:59 51°15.098 2°54.126 337.7 11.5 332 9.9
2008-01-30 08:15:04 51°15.112 2°54.114 337.7 11.6 331 10
2008-01-30 08:15:09 51°15.127 2°54.102 337.3 11.7 331 10
2008-01-30 08:15:14 51°15.141 2°54.09 336.9 11.6 332 9.8
2008-01-30 08:15:19 51°15.155 2°54.078 336.7 11.6 332 10.1
2008-01-30 08:15:24 51°15.169 2°54.066 336.7 11.3 332 10.1
2008-01-30 08:15:29 51°15.182 2°54.055 337.1 11 334 9.7
2008-01-30 08:15:34 51°15.196 2°54.044 337.8 11.2 333 10.4
2008-01-30 08:15:39 51°15.21 2°54.033 338 11.1 333 9.8
2008-01-30 08:15:44 51°15.223 2°54.02 338 11.2 331 10.2
2008-01-30 08:15:49 51°15.237 2°54.009 337.4 11.2 332 10
2008-01-30 08:15:54 51°15.251 2°53.997 337.4 11.4 331 10.3
2008-01-30 08:15:59 51°15.264 2°53.985 337.5 11.1 330 10.2
2008-01-30 08:16:04 51°15.278 2°53.972 337.5 11.2 330 10.6
2008-01-30 08:16:09 51°15.291 2°53.96 336.9 11.1 330 10.3
2008-01-30 08:16:14 51°15.304 2°53.949 336.7 10.9 332 10.2
2008-01-30 08:16:19 51°15.318 2°53.938 337.5 11.2 333 10.8
2008-01-30 08:16:24 51°15.332 2°53.926 337.9 11.2 333 10.8
2008-01-30 08:16:29 51°15.345 2°53.915 338.4 10.9 332 10.2
2008-01-30 08:16:34 51°15.359 2°53.904 338.4 10.9 332 10.7
2008-01-30 08:16:39 51°15.372 2°53.893 338.4 10.9 333 10.7
2008-01-30 08:16:44 51°15.385 2°53.881 338.1 10.9 330 10.7
2008-01-30 08:16:49 51°15.399 2°53.869 338 11.1 331 11
2008-01-30 08:16:54 51°15.412 2°53.857 337.7 11.2 331 10.9
2008-01-30 08:16:59 51°15.426 2°53.845 337.6 11.3 332 11.1
2008-01-30 08:17:04 51°15.44 2°53.834 337.8 11.2 333 11
2008-01-30 08:17:09 51°15.454 2°53.822 338.6 11.4 333 10.8
2008-01-30 08:17:14 51°15.468 2°53.811 339.1 11.5 332 10.9
2008-01-30 08:17:19 51°15.482 2°53.798 338.6 11.5 331 10.9
2008-01-30 08:17:24 51°15.496 2°53.786 338.1 11.6 332 11.1
2008-01-30 08:17:29 51°15.511 2°53.774 338 11.7 332 11.2
2008-01-30 08:17:34 51°15.525 2°53.762 338.1 11.8 332 11.4
2008-01-30 08:17:39 51°15.54 2°53.751 338.2 11.4 333 10.8
2008-01-30 08:17:44 51°15.554 2°53.739 338.5 11.5 332 11.7
2008-01-30 08:17:49 51°15.567 2°53.726 338.2 11.4 331 11.2
2008-01-30 08:17:54 51°15.582 2°53.714 337.8 11.5 332 11.4
2008-01-30 08:17:59 51°15.596 2°53.702 337.9 11.5 332 11.5
2008-01-30 08:18:04 51°15.61 2°53.691 338 11.5 333 11.4
2008-01-30 08:18:09 51°15.624 2°53.679 338.1 11.4 332 11.6
2008-01-30 08:18:14 51°15.638 2°53.667 338 11.6 332 11.4
2008-01-30 08:18:19 51°15.652 2°53.655 338.5 11.5 332 11.3
2008-01-30 08:18:24 51°15.666 2°53.643 338.2 11.4 332 11.5
2008-01-30 08:18:29 51°15.68 2°53.631 338.4 11.5 331 11.7
2008-01-30 08:18:34 51°15.694 2°53.619 337.9 11.6 332 11.4
2008-01-30 08:18:39 51°15.708 2°53.607 337.7 11.5 332 11.7
2008-01-30 08:18:44 51°15.722 2°53.596 338.1 11.3 333 11.7
2008-01-30 08:18:49 51°15.736 2°53.584 338.2 11.3 333 11.9
2008-01-30 08:18:54 51°15.75 2°53.573 338.4 11.2 333 11.6
2008-01-30 08:18:59 51°15.764 2°53.562 339 11.3 333 12
2008-01-30 08:19:04 51°15.777 2°53.55 338.8 11.3 332 11.6
2008-01-30 08:19:09 51°15.792 2°53.539 338.9 11.4 333 11.9
2008-01-30 08:19:14 51°15.805 2°53.527 338.7 11.3 332 11.8
2008-01-30 08:19:19 51°15.819 2°53.516 338.2 11.2 333 12.2
2008-01-30 08:19:24 51°15.833 2°53.504 338.2 11.1 333 12.3
2008-01-30 08:19:29 51°15.846 2°53.493 338.5 10.9 333 11.8
2008-01-30 08:19:34 51°15.86 2°53.483 338.2 10.9 335 12.4
2008-01-30 08:19:39 51°15.874 2°53.473 338.5 10.7 334 11.6
2008-01-30 08:19:44 51°15.887 2°53.462 339.6 10.8 332 11.9
2008-01-30 08:19:49 51°15.9 2°53.45 338.8 11 332 12.1
2008-01-30 08:19:54 51°15.914 2°53.439 338 11.1 332 12.2
2008-01-30 08:19:59 51°15.928 2°53.427 337.6 11 332 11.9
2008-01-30 08:20:04 51°15.942 2°53.416 337.7 11.2 333 12.3
2008-01-30 08:20:09 51°15.955 2°53.405 337.9 11.1 333 12.1
2008-01-30 08:20:14 51°15.969 2°53.394 338.2 10.9 333 12
2008-01-30 08:20:19 51°15.982 2°53.382 338.7 11 331 12.4
2008-01-30 08:20:24 51°15.996 2°53.372 338 11.2 333 12.4
2008-01-30 08:20:29 51°16.01 2°53.36 338.1 11.4 333 12.4
2008-01-30 08:20:34 51°16.024 2°53.349 338.3 11.3 334 12
2008-01-30 08:20:39 51°16.038 2°53.338 338.9 11.5 334 12.5
2008-01-30 08:20:44 51°16.053 2°53.327 338.9 11.3 333 12.1
2008-01-30 08:20:49 51°16.067 2°53.315 338.9 11.4 333 12.3
2008-01-30 08:20:54 51°16.081 2°53.304 338.9 11.4 333 12.2
2008-01-30 08:20:59 51°16.095 2°53.292 338.2 11.6 333 12.3
2008-01-30 08:21:04 51°16.109 2°53.28 338.2 11.6 333 12.4
2008-01-30 08:21:09 51°16.124 2°53.268 338.4 11.7 333 12.3
2008-01-30 08:21:14 51°16.138 2°53.257 338.2 11.5 333 12.3
2008-01-30 08:21:19 51°16.152 2°53.245 338.2 11.6 333 12.5
2008-01-30 08:21:24 51°16.166 2°53.233 338.2 11.5 332 12.5
2008-01-30 08:21:29 51°16.18 2°53.221 337.8 11.5 332 12.3
2008-01-30 08:21:34 51°16.195 2°53.21 338.1 11.6 334 12.4
2008-01-30 08:21:39 51°16.209 2°53.199 338.2 11.6 334 12.3
2008-01-30 08:21:44 51°16.224 2°53.187 338.3 11.7 334 12.6
2008-01-30 08:21:49 51°16.238 2°53.175 338.7 11.6 334 12.2
2008-01-30 08:21:54 51°16.252 2°53.163 338.8 11.4 332 12.5
2008-01-30 08:21:59 51°16.266 2°53.152 338.2 11.5 333 12.6
2008-01-30 08:22:04 51°16.28 2°53.141 338.4 11.3 332 12.2
2008-01-30 08:22:09 51°16.294 2°53.13 338.3 11.3 334 12.6
2008-01-30 08:22:14 51°16.308 2°53.118 338.4 11.4 334 12.8
2008-01-30 08:22:19 51°16.322 2°53.108 338.9 11.2 334 12.3
2008-01-30 08:22:24 51°16.336 2°53.097 339.1 11.3 334 12.7
2008-01-30 08:22:29 51°16.35 2°53.086 338.9 11 335 12.2
2008-01-30 08:22:34 51°16.364 2°53.075 339 11.2 333 12.4
2008-01-30 08:22:39 51°16.378 2°53.064 338.9 11.3 333 12.5
2008-01-30 08:22:44 51°16.392 2°53.052 338.1 11.4 333 12.4
2008-01-30 08:22:49 51°16.406 2°53.041 338.2 11.6 333 12.6
2008-01-30 08:22:54 51°16.421 2°53.029 338.5 11.7 333 12.5
2008-01-30 08:22:59 51°16.435 2°53.017 338.1 11.7 333 12.4
2008-01-30 08:23:04 51°16.449 2°53.006 337.8 11.4 334 12.2
2008-01-30 08:23:09 51°16.464 2°52.995 338.1 11.4 334 12.7
2008-01-30 08:23:14 51°16.478 2°52.984 338.1 11.4 334 12.7
2008-01-30 08:23:19 51°16.492 2°52.973 338.3 11.2 334 -999
2008-01-30 08:23:24 51°16.505 2°52.962 338.5 11.3 332 12.4
2008-01-30 08:23:29 51°16.52 2°52.95 337.8 11.4 333 12.3
2008-01-30 08:23:34 51°16.533 2°52.939 337.5 11.2 333 12.1
2008-01-30 08:23:39 51°16.548 2°52.928 337.6 11.3 334 12.7
2008-01-30 08:23:44 51°16.562 2°52.917 338.1 11.5 333 12.7
2008-01-30 08:23:49 51°16.576 2°52.906 338.2 11.4 333 12.1
2008-01-30 08:23:54 51°16.59 2°52.895 338.9 11.5 334 12.3
2008-01-30 08:23:59 51°16.605 2°52.884 339.7 11.5 336 12.2
2008-01-30 08:24:04 51°16.619 2°52.874 340.5 11.6 336 12.3
2008-01-30 08:24:09 51°16.634 2°52.864 341.3 11.6 337 12.4
2008-01-30 08:24:14 51°16.649 2°52.854 341.8 11.3 338 12
2008-01-30 08:24:19 51°16.663 2°52.845 342.4 11.3 339 12.3
2008-01-30 08:24:24 51°16.678 2°52.837 342.9 11.3 339 12
2008-01-30 08:24:29 51°16.692 2°52.829 343.7 11.2 340 11.7
2008-01-30 08:24:34 51°16.707 2°52.819 343.9 11.3 339 11.9
2008-01-30 08:24:39 51°16.721 2°52.81 343.9 11.3 338 11.5
2008-01-30 08:24:44 51°16.736 2°52.801 343.4 11.4 338 11.6
2008-01-30 08:24:49 51°16.75 2°52.791 342.8 11.2 337 11.1
2008-01-30 08:24:54 51°16.765 2°52.781 342.4 11.4 337 10.9
2008-01-30 08:24:59 51°16.78 2°52.771 341.5 11.4 337 10.7
2008-01-30 08:25:04 51°16.794 2°52.761 341.8 11.4 337 10.2
2008-01-30 08:25:09 51°16.809 2°52.752 342.3 11.4 340 10.4
2008-01-30 08:25:14 51°16.824 2°52.743 343.5 11.4 340 10.6
2008-01-30 08:25:19 51°16.839 2°52.735 344.9 11.5 340 10.4
2008-01-30 08:25:24 51°16.854 2°52.726 345.4 11.4 341 10.3
2008-01-30 08:25:29 51°16.869 2°52.718 345.2 11.5 341 10.3
2008-01-30 08:25:34 51°16.885 2°52.71 345.7 11.7 342 10.4
2008-01-30 08:25:39 51°16.9 2°52.701 346 11.6 340 9.8
2008-01-30 08:25:44 51°16.915 2°52.693 346.5 11.5 342 10
2008-01-30 08:25:49 51°16.93 2°52.686 346.2 11.5 343 10.4
2008-01-30 08:25:54 51°16.946 2°52.678 346.8 11.7 342 10.4
2008-01-30 08:25:59 51°16.961 2°52.669 347.2 11.6 342 10.4
2008-01-30 08:26:04 51°16.977 2°52.663 346.9 11.7 345 10.6
2008-01-30 08:26:09 51°16.992 2°52.655 348.7 11.8 343 10.9
2008-01-30 08:26:14 51°17.008 2°52.649 349.3 11.8 346 10.9
2008-01-30 08:26:19 51°17.024 2°52.642 350.2 11.7 344 10.7
2008-01-30 08:26:24 51°17.039 2°52.637 350.3 11.6 348 10.6
2008-01-30 08:26:29 51°17.055 2°52.631 351.5 11.7 346 10.7
2008-01-30 08:26:34 51°17.071 2°52.624 351.6 11.6 345 10.3
2008-01-30 08:26:39 51°17.087 2°52.618 351.1 11.7 346 10.3
2008-01-30 08:26:44 51°17.102 2°52.611 351.5 11.7 345 10.1
2008-01-30 08:26:49 51°17.118 2°52.606 351 11.7 347 10.1
2008-01-30 08:26:54 51°17.134 2°52.6 351.7 11.8 347 10.4
2008-01-30 08:26:59 51°17.15 2°52.595 352.2 11.6 348 10.1
2008-01-30 08:27:04 51°17.166 2°52.589 352.6 11.7 347 10.6
2008-01-30 08:27:09 51°17.181 2°52.583 352.3 11.8 347 10.5
2008-01-30 08:27:14 51°17.197 2°52.578 351.7 11.5 348 10.1
2008-01-30 08:27:19 51°17.213 2°52.573 352.6 11.3 350 10.2
2008-01-30 08:27:24 51°17.228 2°52.569 354.1 11.4 350 10.9
2008-01-30 08:27:29 51°17.244 2°52.564 355 11.5 348 10.6
2008-01-30 08:27:34 51°17.259 2°52.559 354.3 11.4 350 10.5
2008-01-30 08:27:39 51°17.275 2°52.554 354.5 11.5 350 10.8
2008-01-30 08:27:44 51°17.291 2°52.55 354.6 11.5 349 10.6
2008-01-30 08:27:49 51°17.307 2°52.545 354.9 11.5 349 10.8
2008-01-30 08:27:54 51°17.322 2°52.541 355.2 11.5 349 10.9
2008-01-30 08:27:59 51°17.338 2°52.536 354.6 11.3 350 11.1
2008-01-30 08:28:04 51°17.353 2°52.533 355.1 11.2 354 11
2008-01-30 08:28:09 51°17.369 2°52.533 356.7 11.1 358 -999
2008-01-30 08:28:14 51°17.384 2°52.531 0.7 10.9 356 10.7
2008-01-30 08:28:19 51°17.399 2°52.529 0.9 11 355 10.4
2008-01-30 08:28:24 51°17.415 2°52.527 0.7 11.2 356 10.8
2008-01-30 08:28:29 51°17.43 2°52.525 1.1 11.2 355 10.7
2008-01-30 08:28:34 51°17.445 2°52.524 1.5 11.2 357 11.2
2008-01-30 08:28:39 51°17.461 2°52.523 1.9 11.3 356 11.1
2008-01-30 08:28:44 51°17.477 2°52.521 2.4 11.3 356 10.7
2008-01-30 08:28:49 51°17.493 2°52.519 1.8 11.3 356 11.3
2008-01-30 08:28:54 51°17.508 2°52.518 2.2 11.3 357 11.2
2008-01-30 08:28:59 51°17.524 2°52.517 2.3 11.5 357 11.1
2008-01-30 08:29:04 51°17.54 2°52.515 2.3 11.6 356 11.2
2008-01-30 08:29:09 51°17.556 2°52.513 2.4 11.5 356 11
2008-01-30 08:29:14 51°17.572 2°52.512 2.1 11.5 357 11.3
2008-01-30 08:29:19 51°17.588 2°52.51 2 11.7 356 11.2
2008-01-30 08:29:24 51°17.605 2°52.509 2 11.7 356 10.9
2008-01-30 08:29:29 51°17.62 2°52.508 1.4 11.5 358 10.8
2008-01-30 08:29:34 51°17.636 2°52.507 2.3 11.5 359 10.7
2008-01-30 08:29:39 51°17.652 2°52.507 3.5 11.5 359 11.1
2008-01-30 08:29:44 51°17.667 2°52.508 4 10.6 3 -999
2008-01-30 08:29:49 51°17.682 2°52.51 6.6 10.7 4 -999
2008-01-30 08:29:54 51°17.697 2°52.512 8.1 10.9 3 9.4
2008-01-30 08:29:59 51°17.712 2°52.513 8 10.8 3 10.4
2008-01-30 08:30:04 51°17.726 2°52.515 8.2 10.5 4 10.8
2008-01-30 08:30:09 51°17.741 2°52.517 8.2 10.6 6 11.2
2008-01-30 08:30:14 51°17.756 2°52.519 9.8 10.7 4 11.2
2008-01-30 08:30:19 51°17.771 2°52.521 10.5 10.8 6 10.5
2008-01-30 08:30:24 51°17.786 2°52.524 11.6 11 7 11.1
2008-01-30 08:30:29 51°17.801 2°52.529 12.3 11.2 10 11.6
2008-01-30 08:30:34 51°17.816 2°52.534 13.8 11.2 13 11.2
2008-01-30 08:30:39 51°17.831 2°52.539 16.1 10.7 11 10.6
2008-01-30 08:30:44 51°17.845 2°52.544 15.8 10.4 13 -999
2008-01-30 08:30:49 51°17.859 2°52.549 17.2 10.6 13 10.9
2008-01-30 08:30:54 51°17.874 2°52.554 17.3 10.8 11 -999
2008-01-30 08:30:59 51°17.889 2°52.559 17.1 11 11 10.8
2008-01-30 08:31:04 51°17.904 2°52.563 16.5 11.1 11 10.8
2008-01-30 08:31:09 51°17.919 2°52.568 15.7 11.4 11 11
2008-01-30 08:31:14 51°17.935 2°52.572 16.6 11.4 8 11.3
2008-01-30 08:31:19 51°17.951 2°52.577 15 11.5 12 11.6
2008-01-30 08:31:24 51°17.966 2°52.581 16.1 11.3 10 11.4
2008-01-30 08:31:29 51°17.982 2°52.587 14.9 11.4 13 11.9
2008-01-30 08:31:34 51°17.997 2°52.593 16.5 11.5 13 11.5
2008-01-30 08:31:39 51°18.012 2°52.601 18.7 11.4 17 11.4
2008-01-30 08:31:44 51°18.027 2°52.609 21.1 11.6 19 11.3
2008-01-30 08:31:49 51°18.042 2°52.618 23 11.5 21 11.1
2008-01-30 08:31:54 51°18.056 2°52.63 24.9 11.5 27 11
2008-01-30 08:31:59 51°18.07 2°52.642 29 11.4 29 11.4
2008-01-30 08:32:04 51°18.083 2°52.656 32.1 11.3 33 11.3
2008-01-30 08:32:09 51°18.096 2°52.671 36.9 11.5 35 11.4
2008-01-30 08:32:14 51°18.108 2°52.688 39.7 11.7 41 11.5
2008-01-30 08:32:19 51°18.121 2°52.704 43.4 11.5 41 11.5
2008-01-30 08:32:24 51°18.132 2°52.723 45.9 11.7 47 11.5
2008-01-30 08:32:29 51°18.144 2°52.74 48.2 11.6 44 11.1
2008-01-30 08:32:34 51°18.154 2°52.76 49.1 11.7 50 11.4
2008-01-30 08:32:39 51°18.165 2°52.78 51.5 11.7 50 11.3
2008-01-30 08:32:44 51°18.175 2°52.8 54.2 11.7 52 11.4
2008-01-30 08:32:49 51°18.185 2°52.82 55.8 11.8 52 11.5
2008-01-30 08:32:54 51°18.195 2°52.841 56.9 11.7 53 11.2
2008-01-30 08:32:59 51°18.204 2°52.863 58.4 11.7 55 11
2008-01-30 08:33:04 51°18.213 2°52.884 59.3 11.7 57 11.4
2008-01-30 08:33:09 51°18.222 2°52.905 60 11.8 54 11.7
2008-01-30 08:33:14 51°18.232 2°52.927 59.8 11.9 56 11.3
2008-01-30 08:33:19 51°18.241 2°52.948 60.7 12 54 11.5
2008-01-30 08:33:24 51°18.251 2°52.97 60.2 11.8 55 11.6
2008-01-30 08:33:29 51°18.26 2°52.991 59.6 11.7 56 11.5
2008-01-30 08:33:34 51°18.269 2°53.013 60.2 11.8 55 11.8
2008-01-30 08:33:39 51°18.278 2°53.035 61 12 58 11.8
2008-01-30 08:33:44 51°18.288 2°53.057 60.5 11.8 56 11.7
2008-01-30 08:33:49 51°18.296 2°53.079 61.4 11.7 60 11.3
2008-01-30 08:33:54 51°18.306 2°53.099 62.4 11.7 53 11.6
2008-01-30 08:33:59 51°18.314 2°53.122 59.2 11.7 58 11.4
2008-01-30 08:34:04 51°18.324 2°53.143 62.1 11.8 55 11.5
2008-01-30 08:34:09 51°18.332 2°53.166 61.7 11.8 57 11.5
2008-01-30 08:34:14 51°18.342 2°53.187 61.3 11.6 56 11.6
2008-01-30 08:34:19 51°18.35 2°53.21 61.6 11.9 57 11.6
2008-01-30 08:34:24 51°18.36 2°53.231 62.3 12 57 11.8
2008-01-30 08:34:29 51°18.368 2°53.255 61.3 12 61 12
2008-01-30 08:34:34 51°18.378 2°53.275 63.4 11.6 55 11.8
2008-01-30 08:34:39 51°18.386 2°53.297 61.3 11.8 57 12.1
2008-01-30 08:34:44 51°18.394 2°53.32 62 11.9 58 11.7
2008-01-30 08:34:49 51°18.402 2°53.342 63.7 11.7 60 11.6
2008-01-30 08:34:54 51°18.411 2°53.365 64.2 11.8 59 11.5
2008-01-30 08:34:59 51°18.42 2°53.387 63.5 11.8 57 11.8
2008-01-30 08:35:04 51°18.428 2°53.409 63.1 11.7 60 11.5
2008-01-30 08:35:09 51°18.437 2°53.431 63.8 11.8 59 11.9
2008-01-30 08:35:14 51°18.445 2°53.454 63.9 11.8 57 12
2008-01-30 08:35:19 51°18.453 2°53.477 63.8 11.9 60 11.7
2008-01-30 08:35:24 51°18.462 2°53.499 64.4 11.8 58 11.6
2008-01-30 08:35:29 51°18.47 2°53.521 63.2 11.8 61 11.6
2008-01-30 08:35:34 51°18.478 2°53.545 65.5 12 62 11.5
2008-01-30 08:35:39 51°18.487 2°53.567 66 11.7 58 11.6
2008-01-30 08:35:44 51°18.494 2°53.591 64.3 11.8 64 11.7
2008-01-30 08:35:49 51°18.502 2°53.613 67.5 11.8 62 11.8
2008-01-30 08:35:54 51°18.509 2°53.637 66.8 11.8 64 11.9
2008-01-30 08:35:59 51°18.517 2°53.661 66.8 12.1 64 12.2
2008-01-30 08:36:04 51°18.525 2°53.684 67.9 11.9 61 11.5
2008-01-30 08:36:09 51°18.532 2°53.707 68.4 11.6 63 11.4
2008-01-30 08:36:14 51°18.539 2°53.73 67.3 11.9 64 11.5
2008-01-30 08:36:19 51°18.548 2°53.753 66.8 12 60 11.6
2008-01-30 08:36:24 51°18.554 2°53.778 66.8 12.1 68 11.7
2008-01-30 08:36:29 51°18.563 2°53.798 68.9 11.5 57 11.9
2008-01-30 08:36:34 51°18.569 2°53.823 65.4 12 66 11.4
2008-01-30 08:36:39 51°18.579 2°53.844 67.6 11.9 58 11.4
2008-01-30 08:36:44 51°18.586 2°53.868 65.5 11.9 65 11.6
2008-01-30 08:36:49 51°18.594 2°53.89 66.9 11.9 58 11.7
2008-01-30 08:36:54 51°18.602 2°53.913 65.7 11.7 62 11.8
2008-01-30 08:36:59 51°18.609 2°53.937 65.6 11.9 62 11.5
2008-01-30 08:37:04 51°18.618 2°53.958 67.5 11.5 60 11.6
2008-01-30 08:37:09 51°18.624 2°53.982 65.9 11.6 66 11.3
2008-01-30 08:37:14 51°18.632 2°54.005 68.3 11.7 63 12
2008-01-30 08:37:19 51°18.639 2°54.028 67.5 11.6 63 11.6
2008-01-30 08:37:24 51°18.646 2°54.051 68.2 11.7 64 11.8
2008-01-30 08:37:29 51°18.653 2°54.075 69.1 11.9 65 12
2008-01-30 08:37:34 51°18.66 2°54.098 69.4 11.7 66 11.8
2008-01-30 08:37:39 51°18.668 2°54.121 69 11.7 60 11.8
2008-01-30 08:37:44 51°18.674 2°54.145 67.4 11.6 66 11.2
2008-01-30 08:37:49 51°18.682 2°54.168 69.1 11.8 63 11.4
2008-01-30 08:37:54 51°18.689 2°54.192 69.5 12 62 11.5
2008-01-30 08:37:59 51°18.696 2°54.215 68.1 11.8 65 11.5
2008-01-30 08:38:04 51°18.704 2°54.238 69.2 11.8 60 11.7
2008-01-30 08:38:09 51°18.711 2°54.262 67.5 11.9 66 11.6
2008-01-30 08:38:14 51°18.719 2°54.285 68.9 11.9 60 12
2008-01-30 08:38:19 51°18.726 2°54.308 68.2 11.7 63 12
2008-01-30 08:38:24 51°18.733 2°54.332 68.5 11.8 64 11.8
2008-01-30 08:38:29 51°18.741 2°54.355 68.5 11.9 66 11.8
2008-01-30 08:38:34 51°18.748 2°54.378 68.3 11.8 61 11.7
2008-01-30 08:38:39 51°18.756 2°54.401 68 11.7 64 11.8
2008-01-30 08:38:44 51°18.763 2°54.425 68.4 11.7 64 11.7
2008-01-30 08:38:49 51°18.771 2°54.448 69 11.7 63 11.7
2008-01-30 08:38:54 51°18.779 2°54.47 68.1 11.6 61 11.8
2008-01-30 08:38:59 51°18.785 2°54.495 67.5 11.9 66 11.5
2008-01-30 08:39:04 51°18.795 2°54.515 69.6 11.7 54 11.7
2008-01-30 08:39:09 51°18.799 2°54.54 64.7 11.7 70 11.6
2008-01-30 08:39:14 51°18.808 2°54.561 69.5 11.5 57 11.4
2008-01-30 08:39:19 51°18.813 2°54.585 66.7 11.6 68 11.3
2008-01-30 08:39:24 51°18.822 2°54.608 69.6 11.7 60 11.6
2008-01-30 08:39:29 51°18.828 2°54.631 67.5 11.6 65 11.7
2008-01-30 08:39:34 51°18.836 2°54.654 67.5 11.5 64 11.4
2008-01-30 08:39:39 51°18.844 2°54.677 68.1 11.6 64 11.7
2008-01-30 08:39:44 51°18.852 2°54.7 67.6 11.9 62 11.6
2008-01-30 08:39:49 51°18.859 2°54.723 68 11.7 62 11.3
2008-01-30 08:39:54 51°18.866 2°54.746 67.5 11.7 64 11.6
2008-01-30 08:39:59 51°18.874 2°54.769 68.9 11.6 61 11.5
2008-01-30 08:40:04 51°18.881 2°54.792 67.4 11.6 63 11.8
2008-01-30 08:40:09 51°18.888 2°54.816 68.2 12 62 11.9
2008-01-30 08:40:14 51°18.897 2°54.837 67.5 11.7 59 11.5
2008-01-30 08:40:19 51°18.904 2°54.861 66.3 11.7 67 11.6
2008-01-30 08:40:24 51°18.913 2°54.883 69.1 11.8 56 11.6
2008-01-30 08:40:29 51°18.92 2°54.907 64.8 11.7 64 11.6
2008-01-30 08:40:34 51°18.928 2°54.929 66.1 11.6 62 11.6
2008-01-30 08:40:39 51°18.935 2°54.952 67.1 11.9 63 11.7
2008-01-30 08:40:44 51°18.944 2°54.974 66.6 11.7 58 11.7
2008-01-30 08:40:49 51°18.95 2°54.998 65.1 11.7 68 11.8
2008-01-30 08:40:54 51°18.959 2°55.02 67.9 11.8 59 11.6
2008-01-30 08:40:59 51°18.965 2°55.044 65.6 11.8 63 10.9
2008-01-30 08:41:04 51°18.973 2°55.067 68.5 11.6 61 10.7
2008-01-30 08:41:09 51°18.98 2°55.089 66.7 11.6 64 11
2008-01-30 08:41:14 51°18.988 2°55.113 67.8 11.8 61 11.1
2008-01-30 08:41:19 51°18.995 2°55.136 66.8 11.7 63 11.1
2008-01-30 08:41:24 51°19.003 2°55.158 67.7 11.6 61 11.5
2008-01-30 08:41:29 51°19.01 2°55.182 66.7 11.7 62 11.7
2008-01-30 08:41:34 51°19.019 2°55.204 66.3 11.7 64 11.9
2008-01-30 08:41:39 51°19.027 2°55.226 66.3 11.6 57 12
2008-01-30 08:41:44 51°19.034 2°55.25 64.8 11.8 68 11.9
2008-01-30 08:41:49 51°19.042 2°55.272 69 11.6 60 12.1
2008-01-30 08:41:54 51°19.049 2°55.295 67 11.5 65 12
2008-01-30 08:41:59 51°19.056 2°55.319 67.5 11.8 63 11.8
2008-01-30 08:42:04 51°19.063 2°55.343 69.9 11.8 66 11.6
2008-01-30 08:42:09 51°19.07 2°55.366 70.5 11.5 65 11.6
2008-01-30 08:42:14 51°19.075 2°55.39 71.1 11.7 67 11.6
2008-01-30 08:42:19 51°19.082 2°55.414 71.5 11.7 68 11.5
2008-01-30 08:42:24 51°19.089 2°55.436 71.6 11.5 63 11.6
2008-01-30 08:42:29 51°19.095 2°55.461 70.5 11.7 70 11.7
2008-01-30 08:42:34 51°19.102 2°55.484 72.5 11.9 61 11.6
2008-01-30 08:42:39 51°19.107 2°55.51 71.2 12 76 11.4
2008-01-30 08:42:44 51°19.114 2°55.532 74.6 11.7 61 11.5
2008-01-30 08:42:49 51°19.118 2°55.557 71.8 11.6 74 11.5
2008-01-30 08:42:54 51°19.126 2°55.58 75.2 11.8 61 11.6
2008-01-30 08:42:59 51°19.132 2°55.604 71.1 11.5 68 11.5
2008-01-30 08:43:04 51°19.137 2°55.627 71.3 11.5 68 11.6
2008-01-30 08:43:09 51°19.144 2°55.65 72.3 11.5 64 11.4
2008-01-30 08:43:14 51°19.15 2°55.674 70.4 11.5 68 11.4
2008-01-30 08:43:19 51°19.156 2°55.697 71.8 11.5 66 11.3
2008-01-30 08:43:24 51°19.162 2°55.722 72.1 11.8 70 11.6
2008-01-30 08:43:29 51°19.169 2°55.745 73.5 11.7 62 11.7
2008-01-30 08:43:34 51°19.175 2°55.769 70.8 11.7 72 11.6
2008-01-30 08:43:39 51°19.182 2°55.793 72.5 11.8 64 11.9
2008-01-30 08:43:44 51°19.188 2°55.816 71.1 11.6 67 11.4
2008-01-30 08:43:49 51°19.195 2°55.841 71 11.8 69 11.4
2008-01-30 08:43:54 51°19.202 2°55.864 73.3 11.8 65 11.3
2008-01-30 08:43:59 51°19.206 2°55.889 73.4 11.6 74 11.4
2008-01-30 08:44:04 51°19.212 2°55.913 76 11.6 69 11.5
2008-01-30 08:44:09 51°19.217 2°55.938 75.1 11.9 71 11.4
2008-01-30 08:44:14 51°19.222 2°55.962 75 11.7 69 11.1
2008-01-30 08:44:19 51°19.227 2°55.986 76 11.6 73 11
2008-01-30 08:44:24 51°19.231 2°56.012 77.4 11.8 73 11.2
2008-01-30 08:44:29 51°19.237 2°56.036 77.6 11.5 72 11.4
2008-01-30 08:44:34 51°19.241 2°56.061 75.9 11.8 71 11.2
2008-01-30 08:44:39 51°19.247 2°56.086 76.8 11.8 71 11.2
2008-01-30 08:44:44 51°19.253 2°56.109 76.6 11.5 69 11.3
2008-01-30 08:44:49 51°19.256 2°56.134 76.3 11.8 74 11.2
2008-01-30 08:44:54 51°19.263 2°56.158 77.5 11.7 68 11.5
2008-01-30 08:44:59 51°19.269 2°56.182 74.9 11.8 70 11.5
2008-01-30 08:45:04 51°19.274 2°56.207 74.5 11.6 68 11.4
2008-01-30 08:45:09 51°19.279 2°56.23 73.7 11.3 73 11.3
2008-01-30 08:45:14 51°19.283 2°56.256 76.9 11.9 72 11.2
2008-01-30 08:45:19 51°19.29 2°56.279 75.6 11.4 67 11.1
2008-01-30 08:45:24 51°19.294 2°56.303 72.9 11.6 76 11.6
2008-01-30 08:45:29 51°19.3 2°56.328 77 11.7 68 11.5
2008-01-30 08:45:34 51°19.305 2°56.352 74.8 11.5 74 11.4
2008-01-30 08:45:39 51°19.31 2°56.376 75.6 11.7 70 11.1
2008-01-30 08:45:44 51°19.315 2°56.401 76.5 11.7 74 11.5
2008-01-30 08:45:49 51°19.32 2°56.425 77 11.7 68 11.3
2008-01-30 08:45:54 51°19.325 2°56.45 75.3 11.6 72 11.2
2008-01-30 08:45:59 51°19.33 2°56.474 75.8 11.5 74 11.5
2008-01-30 08:46:04 51°19.336 2°56.498 77.6 11.8 69 11.6
2008-01-30 08:46:09 51°19.341 2°56.523 75.6 11.7 72 11.3
2008-01-30 08:46:14 51°19.346 2°56.547 76.2 11.5 71 11.3
2008-01-30 08:46:19 51°19.35 2°56.572 76.8 11.9 74 11.3
2008-01-30 08:46:24 51°19.358 2°56.595 76.5 11.8 63 11.2
2008-01-30 08:46:29 51°19.361 2°56.621 73.3 11.7 75 10.8
2008-01-30 08:46:34 51°19.368 2°56.645 77 11.6 67 11.1
2008-01-30 08:46:39 51°19.373 2°56.669 75.4 11.7 72 10.9
2008-01-30 08:46:44 51°19.378 2°56.694 74.8 11.9 72 11.2
2008-01-30 08:46:49 51°19.385 2°56.717 75.4 11.6 66 11.1
2008-01-30 08:46:54 51°19.389 2°56.742 73.1 11.6 71 11.1
2008-01-30 08:46:59 51°19.395 2°56.765 75.4 11.4 68 11.2
2008-01-30 08:47:04 51°19.4 2°56.791 72.9 11.8 74 11.3
2008-01-30 08:47:09 51°19.408 2°56.813 75.5 11.6 63 11.3
2008-01-30 08:47:14 51°19.411 2°56.838 72.8 11.7 75 11.2
2008-01-30 08:47:19 51°19.418 2°56.861 75.2 11.5 66 11.1
2008-01-30 08:47:24 51°19.423 2°56.886 74 11.7 73 10.9
2008-01-30 08:47:29 51°19.429 2°56.91 74.7 11.6 67 11.1
2008-01-30 08:47:34 51°19.433 2°56.934 74 11.6 75 11.1
2008-01-30 08:47:39 51°19.44 2°56.958 76.9 11.7 65 11.2
2008-01-30 08:47:44 51°19.445 2°56.982 74.5 11.6 72 11
2008-01-30 08:47:49 51°19.451 2°57.007 74.4 11.6 70 11.1
2008-01-30 08:47:54 51°19.456 2°57.031 75.5 11.6 71 11.2
2008-01-30 08:47:59 51°19.461 2°57.055 76 11.4 69 11.2
2008-01-30 08:48:04 51°19.465 2°57.08 76.3 11.6 76 10.8
2008-01-30 08:48:09 51°19.471 2°57.103 76.8 11.6 70 10.8
2008-01-30 08:48:14 51°19.475 2°57.129 75.2 11.8 73 11
2008-01-30 08:48:19 51°19.483 2°57.152 77.6 11.4 66 11
2008-01-30 08:48:24 51°19.485 2°57.177 73.9 11.5 74 10.8
2008-01-30 08:48:29 51°19.493 2°57.2 77.9 11.6 67 10.9
2008-01-30 08:48:34 51°19.497 2°57.225 73.8 11.4 71 10.7
2008-01-30 08:48:39 51°19.503 2°57.249 75 11.6 73 11
2008-01-30 08:48:44 51°19.508 2°57.273 76.2 11.6 66 11
2008-01-30 08:48:49 51°19.512 2°57.297 75.1 11.3 76 10.9
2008-01-30 08:48:54 51°19.518 2°57.321 76.7 11.5 68 11
2008-01-30 08:48:59 51°19.522 2°57.346 75.8 11.7 75 10.8
2008-01-30 08:49:04 51°19.529 2°57.369 75.8 11.4 67 10.9
2008-01-30 08:49:09 51°19.533 2°57.394 75 11.6 75 10.8
2008-01-30 08:49:14 51°19.541 2°57.416 76.4 11.4 65 11
2008-01-30 08:49:19 51°19.545 2°57.441 72.8 11.4 74 11
2008-01-30 08:49:24 51°19.551 2°57.465 75.1 11.7 68 11.2
2008-01-30 08:49:29 51°19.557 2°57.489 75.1 11.6 70 11
2008-01-30 08:49:34 51°19.563 2°57.512 74.5 11.5 67 11.1
2008-01-30 08:49:39 51°19.567 2°57.537 74.7 11.5 73 11
2008-01-30 08:49:44 51°19.573 2°57.561 75.3 11.5 70 11.2
2008-01-30 08:49:49 51°19.578 2°57.586 74 11.7 74 10.9
2008-01-30 08:49:54 51°19.585 2°57.609 75.8 11.4 67 11.1
2008-01-30 08:49:59 51°19.588 2°57.633 73.7 11.7 73 10.5
2008-01-30 08:50:04 51°19.594 2°57.657 77.3 11.5 64 10.3
2008-01-30 08:50:09 51°19.597 2°57.682 73.7 11.8 79 10.6
2008-01-30 08:50:14 51°19.605 2°57.705 76.4 11.4 65 10.9
2008-01-30 08:50:19 51°19.609 2°57.73 72 11.6 73 10.3
2008-01-30 08:50:24 51°19.616 2°57.753 76.2 11.4 70 10.6
2008-01-30 08:50:29 51°19.622 2°57.777 73.8 11.5 68 10.7
2008-01-30 08:50:34 51°19.627 2°57.801 74.7 11.6 70 10.6
2008-01-30 08:50:39 51°19.632 2°57.825 74.9 11.5 74 10.9
2008-01-30 08:50:44 51°19.638 2°57.849 76.5 11.4 66 11.1
2008-01-30 08:50:49 51°19.643 2°57.874 74.7 11.7 75 11
2008-01-30 08:50:54 51°19.65 2°57.897 75.8 11.7 65 11
2008-01-30 08:50:59 51°19.654 2°57.921 73.7 11.6 74 10.8
2008-01-30 08:51:04 51°19.66 2°57.945 75.4 11.6 68 10.8
2008-01-30 08:51:09 51°19.665 2°57.97 75.5 11.6 75 11
2008-01-30 08:51:14 51°19.671 2°57.994 75.6 11.6 67 10.8
2008-01-30 08:51:19 51°19.677 2°58.018 75.3 11.5 70 10.5
2008-01-30 08:51:24 51°19.681 2°58.042 74 11.4 71 10.3
2008-01-30 08:51:29 51°19.687 2°58.066 76.5 11.6 74 10.4
2008-01-30 08:51:34 51°19.693 2°58.09 76.2 11.4 67 10.7
2008-01-30 08:51:39 51°19.697 2°58.114 74.9 11.4 74 10.6
2008-01-30 08:51:44 51°19.703 2°58.137 76.9 11.4 65 10.5
2008-01-30 08:51:49 51°19.707 2°58.162 74.6 11.6 78 10.4
2008-01-30 08:51:54 51°19.714 2°58.185 77.9 11.5 65 10.5
2008-01-30 08:51:59 51°19.719 2°58.209 73.3 11.4 72 10.5
2008-01-30 08:52:04 51°19.725 2°58.232 73.6 11.5 67 10.6
2008-01-30 08:52:09 51°19.73 2°58.256 74.2 11.4 69 10.6
2008-01-30 08:52:14 51°19.735 2°58.28 73.5 11.5 71 10.5
2008-01-30 08:52:19 51°19.741 2°58.304 74.5 11.6 68 10.4
2008-01-30 08:52:24 51°19.745 2°58.329 74.8 11.4 72 10.5
2008-01-30 08:52:29 51°19.751 2°58.353 75.8 11.5 74 10.5
2008-01-30 08:52:34 51°19.756 2°58.377 75.5 11.7 67 10.5
2008-01-30 08:52:39 51°19.762 2°58.4 75.3 11.3 68 10.6
2008-01-30 08:52:44 51°19.766 2°58.424 73.4 11.5 73 10.4
2008-01-30 08:52:49 51°19.772 2°58.448 75.7 11.6 69 10.4
2008-01-30 08:52:54 51°19.777 2°58.473 74.4 11.4 74 10.5
2008-01-30 08:52:59 51°19.782 2°58.496 75.9 11.4 71 10.6
2008-01-30 08:53:04 51°19.787 2°58.521 75.9 11.4 73 10.5
2008-01-30 08:53:09 51°19.792 2°58.544 76 11.5 71 10.5
2008-01-30 08:53:14 51°19.796 2°58.569 75.4 11.4 74 10.7
2008-01-30 08:53:19 51°19.802 2°58.592 75.5 11.2 71 10.6
2008-01-30 08:53:24 51°19.806 2°58.616 75.6 11.5 71 10.4
2008-01-30 08:53:29 51°19.812 2°58.64 76.1 11.5 72 10.3
2008-01-30 08:53:34 51°19.817 2°58.664 74.9 11.2 70 10.4
2008-01-30 08:53:39 51°19.821 2°58.689 75.6 11.7 77 10.3
2008-01-30 08:53:44 51°19.829 2°58.711 77.6 11.5 62 10.4
2008-01-30 08:53:49 51°19.83 2°58.737 73.1 11.4 81 10
2008-01-30 08:53:54 51°19.836 2°58.76 79.1 11.5 70 10.1
2008-01-30 08:53:59 51°19.84 2°58.784 76.5 11.1 74 10.1
2008-01-30 08:54:04 51°19.845 2°58.808 76.5 11.5 75 10.2
2008-01-30 08:54:09 51°19.851 2°58.831 77.6 11.3 65 10.2
2008-01-30 08:54:14 51°19.854 2°58.856 73.5 11.3 80 10.1
2008-01-30 08:54:19 51°19.86 2°58.879 78.3 11.3 66 10
2008-01-30 08:54:24 51°19.864 2°58.903 74.8 11.2 75 9.9
2008-01-30 08:54:29 51°19.869 2°58.926 75.5 11.1 70 10
2008-01-30 08:54:34 51°19.873 2°58.95 75.6 11.3 78 10.1
2008-01-30 08:54:39 51°19.879 2°58.973 77.1 11.4 67 9.9
2008-01-30 08:54:44 51°19.884 2°58.997 74.7 11.1 71 9.8
2008-01-30 08:54:49 51°19.888 2°59.02 74 11.2 73 9.8
2008-01-30 08:54:54 51°19.895 2°59.043 76.7 11.2 69 10
2008-01-30 08:54:59 51°19.899 2°59.067 72.7 11.3 71 10.2
2008-01-30 08:55:04 51°19.905 2°59.09 73.8 11.2 69 10.4
2008-01-30 08:55:09 51°19.909 2°59.114 74.5 11.3 75 10.1
2008-01-30 08:55:14 51°19.914 2°59.138 75.9 11.3 71 10
2008-01-30 08:55:19 51°19.918 2°59.162 75.1 11.3 76 10.1
2008-01-30 08:55:24 51°19.922 2°59.187 76.8 11.6 74 10.1
2008-01-30 08:55:29 51°19.928 2°59.21 78.7 11.3 71 10.1
2008-01-30 08:55:34 51°19.932 2°59.234 75 11.2 73 10
2008-01-30 08:55:39 51°19.936 2°59.259 76.5 11.6 74 9.9
2008-01-30 08:55:44 51°19.941 2°59.283 76.9 11.2 72 9.9
2008-01-30 08:55:49 51°19.945 2°59.307 76.6 11.2 79 10.2
2008-01-30 08:55:54 51°19.949 2°59.331 78 11.5 71 10.1
2008-01-30 08:55:59 51°19.953 2°59.355 77.3 11.2 77 9.6
2008-01-30 08:56:04 51°19.958 2°59.379 76.2 11.3 73 9.7
2008-01-30 08:56:09 51°19.963 2°59.402 76.3 11.1 69 9.8
2008-01-30 08:56:14 51°19.966 2°59.426 74.7 11.2 77 9.7
2008-01-30 08:56:19 51°19.972 2°59.449 78.1 11.3 70 9.8
2008-01-30 08:56:24 51°19.977 2°59.473 74.5 11.2 74 10.1
2008-01-30 08:56:29 51°19.981 2°59.497 75.4 11.2 72 9.9
2008-01-30 08:56:34 51°19.986 2°59.52 76.6 11.2 74 10.1
2008-01-30 08:56:39 51°19.989 2°59.545 77 11.4 75 10
2008-01-30 08:56:44 51°19.994 2°59.568 78.3 11.2 72 9.9
2008-01-30 08:56:49 51°19.997 2°59.593 76.8 11.3 78 10.1
2008-01-30 08:56:54 51°20.002 2°59.617 78.5 11.4 72 10
2008-01-30 08:56:59 51°20.005 2°59.641 77.2 11.2 76 10
2008-01-30 08:57:04 51°20.008 2°59.666 78.2 11.5 80 10
2008-01-30 08:57:09 51°20.014 2°59.69 79.6 11.3 71 10.1
2008-01-30 08:57:14 51°20.017 2°59.713 76.2 10.9 80 10
2008-01-30 08:57:19 51°20.018 2°59.74 79.1 11.9 81 10
2008-01-30 08:57:24 51°20.027 2°59.761 81.9 11.1 60 10
2008-01-30 08:57:29 51°20.027 2°59.786 71 11.2 83 9.5
2008-01-30 08:57:34 51°20.035 2°59.808 77.7 11.3 66 9.9
2008-01-30 08:57:39 51°20.038 2°59.832 73.3 10.9 77 9.7
2008-01-30 08:57:44 51°20.043 2°59.855 75.8 11 77 10
2008-01-30 08:57:49 51°20.047 2°59.88 77.1 11.3 72 10
2008-01-30 08:57:54 51°20.052 2°59.902 75.8 10.9 72 10
2008-01-30 08:57:59 51°20.055 2°59.927 74.6 11.3 76 9.8
2008-01-30 08:58:04 51°20.061 2°59.95 78.7 11.2 69 9.7
2008-01-30 08:58:09 51°20.064 2°59.973 73.3 11 77 9.9
2008-01-30 08:58:14 51°20.069 2°59.997 76.4 11.2 72 9.7
2008-01-30 08:58:19 51°20.073 3°0.021 76.1 11 75 10
2008-01-30 08:58:24 51°20.077 3°0.045 76.4 11.3 76 9.9
2008-01-30 08:58:29 51°20.082 3°0.068 78.3 11.2 70 10
2008-01-30 08:58:34 51°20.085 3°0.092 76 11.2 79 10.1
2008-01-30 08:58:39 51°20.089 3°0.116 78.4 11.3 75 10.1
2008-01-30 08:58:44 51°20.094 3°0.14 76.9 11.2 72 10.1
2008-01-30 08:58:49 51°20.097 3°0.163 75.7 11 77 9.8
2008-01-30 08:58:54 51°20.1 3°0.188 78.5 11.2 79 9.8
2008-01-30 08:58:59 51°20.105 3°0.211 79.4 11.1 72 9.8
2008-01-30 08:59:04 51°20.108 3°0.236 77.2 11.2 78 9.8
2008-01-30 08:59:09 51°20.112 3°0.26 79.3 11.3 76 9.8
2008-01-30 08:59:14 51°20.116 3°0.283 78.8 11 76 10
2008-01-30 08:59:19 51°20.118 3°0.309 78.8 11.4 79 9.7
2008-01-30 08:59:24 51°20.124 3°0.332 80.6 11.3 71 9.8
2008-01-30 08:59:29 51°20.126 3°0.357 76.6 11.3 82 9.7
2008-01-30 08:59:34 51°20.13 3°0.38 80 11.2 72 9.7
2008-01-30 08:59:39 51°20.134 3°0.405 77.4 11.1 79 9.8
2008-01-30 08:59:44 51°20.137 3°0.429 77.7 11.2 77 9.7
2008-01-30 08:59:49 51°20.142 3°0.451 77.8 11 72 9.6
2008-01-30 08:59:54 51°20.144 3°0.477 76.2 11.1 80 9.4
2008-01-30 08:59:59 51°20.149 3°0.5 80 11.2 75 9.6
2008-01-30 09:00:04 51°20.152 3°0.523 77.3 10.9 74 9.6
2008-01-30 09:00:09 51°20.155 3°0.548 77 11.2 81 9.7
2008-01-30 09:00:14 51°20.16 3°0.571 78.8 11 73 10
2008-01-30 09:00:19 51°20.162 3°0.595 77.1 11.3 81 9.9
2008-01-30 09:00:24 51°20.168 3°0.618 79.1 11 70 9.7
2008-01-30 09:00:29 51°20.17 3°0.642 76.7 11.1 81 9.8
2008-01-30 09:00:34 51°20.175 3°0.665 78.8 10.9 69 9.8
2008-01-30 09:00:39 51°20.18 3°0.688 76.1 10.8 74 9.7
2008-01-30 09:00:44 51°20.183 3°0.713 75.8 11.2 74 9.6
2008-01-30 09:00:49 51°20.19 3°0.735 77 11 68 9.6
2008-01-30 09:00:54 51°20.193 3°0.758 72.3 10.9 76 9.6
2008-01-30 09:00:59 51°20.198 3°0.782 76.3 11.2 71 9.4
2008-01-30 09:01:04 51°20.203 3°0.805 76.2 11 73 9.6
2008-01-30 09:01:09 51°20.207 3°0.829 75.8 11.2 75 9.8
2008-01-30 09:01:14 51°20.213 3°0.852 76.7 11.2 70 9.7
2008-01-30 09:01:19 51°20.218 3°0.875 75.4 11.1 71 9.6
2008-01-30 09:01:24 51°20.222 3°0.899 74.4 11.2 71 9.5
2008-01-30 09:01:29 51°20.227 3°0.922 75 11.1 70 9.4
2008-01-30 09:01:34 51°20.231 3°0.946 74.7 11 75 9.3
2008-01-30 09:01:39 51°20.236 3°0.969 76.2 11.1 71 9.4
2008-01-30 09:01:44 51°20.241 3°0.993 75 11.1 76 9.5
2008-01-30 09:01:49 51°20.246 3°1.016 76.1 11.2 70 9.6
2008-01-30 09:01:54 51°20.25 3°1.04 75.6 11 72 9.2
2008-01-30 09:01:59 51°20.255 3°1.062 74.9 10.8 73 9.3
2008-01-30 09:02:04 51°20.259 3°1.086 75.8 11.3 75 9.3
2008-01-30 09:02:09 51°20.265 3°1.11 77.2 11.2 70 9.5
2008-01-30 09:02:14 51°20.268 3°1.133 75 10.9 76 9.7
2008-01-30 09:02:19 51°20.272 3°1.157 77.6 11 72 9.7
2008-01-30 09:02:24 51°20.278 3°1.18 76.2 11 73 9.8
2008-01-30 09:02:29 51°20.282 3°1.203 75.1 10.8 71 9.7
2008-01-30 09:02:34 51°20.286 3°1.227 74.8 11.3 78 9.5
2008-01-30 09:02:39 51°20.292 3°1.25 76.9 11.2 67 9.8
2008-01-30 09:02:44 51°20.295 3°1.273 73.5 10.8 78 9.7
2008-01-30 09:02:49 51°20.299 3°1.296 76.9 10.8 72 9.7
2008-01-30 09:02:54 51°20.304 3°1.32 76 11 75 9.5
2008-01-30 09:02:59 51°20.309 3°1.343 75.1 11 72 9.6
2008-01-30 09:03:04 51°20.313 3°1.366 75.8 11.1 74 9.3
2008-01-30 09:03:09 51°20.318 3°1.389 76 11 69 9.4
2008-01-30 09:03:14 51°20.322 3°1.412 74.7 10.7 75 9.1
2008-01-30 09:03:19 51°20.327 3°1.435 75.5 11 74 9.5
2008-01-30 09:03:24 51°20.332 3°1.458 76.5 10.9 68 9.5
2008-01-30 09:03:29 51°20.336 3°1.482 73 11 76 9.4
2008-01-30 09:03:34 51°20.34 3°1.506 76.9 11.1 74 9.4
2008-01-30 09:03:39 51°20.344 3°1.529 76.1 10.8 77 9.7
2008-01-30 09:03:44 51°20.348 3°1.553 75.9 11 72 9.4
2008-01-30 09:03:49 51°20.354 3°1.575 79.5 10.9 68 9.3
2008-01-30 09:03:54 51°20.357 3°1.598 72.5 10.8 74 9.3
2008-01-30 09:03:59 51°20.364 3°1.621 74.4 11.1 72 9.6
2008-01-30 09:04:04 51°20.368 3°1.644 73 11 69 9.6
2008-01-30 09:04:09 51°20.372 3°1.668 74 11 75 9.2
2008-01-30 09:04:14 51°20.377 3°1.691 76.4 11.1 71 9.3
2008-01-30 09:04:19 51°20.382 3°1.714 74.8 11.1 71 9.3
2008-01-30 09:04:24 51°20.387 3°1.738 74.1 11.2 73 9.5
2008-01-30 09:04:29 51°20.391 3°1.761 74.7 11 70 9.6
2008-01-30 09:04:34 51°20.395 3°1.784 74.1 10.9 77 9.7
2008-01-30 09:04:39 51°20.4 3°1.807 75.4 11 70 9.9
2008-01-30 09:04:44 51°20.406 3°1.831 74.8 11.2 72 9.8
2008-01-30 09:04:49 51°20.411 3°1.854 74.3 11 69 9.7
2008-01-30 09:04:54 51°20.414 3°1.878 74.3 11.1 75 9.4
2008-01-30 09:04:59 51°20.419 3°1.901 76 11.1 69 9.2
2008-01-30 09:05:04 51°20.424 3°1.924 74 10.8 74 9.2
2008-01-30 09:05:09 51°20.428 3°1.947 74.7 10.9 73 9.3
2008-01-30 09:05:14 51°20.433 3°1.972 76.2 11.5 74 9.4
2008-01-30 09:05:19 51°20.438 3°1.994 75 11.1 66 9.5
2008-01-30 09:05:24 51°20.44 3°2.02 72.9 11.5 84 9.5
2008-01-30 09:05:29 51°20.447 3°2.041 78.4 11.1 64 9.5
2008-01-30 09:05:34 51°20.449 3°2.066 73.2 11 81 9.3
2008-01-30 09:05:39 51°20.456 3°2.088 76.2 11.1 66 9.5
2008-01-30 09:05:44 51°20.459 3°2.112 74.3 11.2 77 9.5
2008-01-30 09:05:49 51°20.464 3°2.136 75.1 11.1 71 9.6
2008-01-30 09:05:54 51°20.468 3°2.159 75.4 11 76 9.6
2008-01-30 09:05:59 51°20.471 3°2.184 76.9 11.3 77 9.6
2008-01-30 09:06:04 51°20.477 3°2.206 78.1 10.9 70 9.5
2008-01-30 09:06:09 51°20.479 3°2.23 74.8 11.2 80 9.6
2008-01-30 09:06:14 51°20.485 3°2.253 79 11.3 66 9.6
2008-01-30 09:06:19 51°20.489 3°2.277 74.7 11.1 75 9.4
2008-01-30 09:06:24 51°20.494 3°2.3 74.1 11 72 9.4
2008-01-30 09:06:29 51°20.499 3°2.323 75.3 11 71 9.4
2008-01-30 09:06:34 51°20.503 3°2.347 74.6 11.1 74 9.5
2008-01-30 09:06:39 51°20.508 3°2.37 75.7 10.8 73 9.4
2008-01-30 09:06:44 51°20.512 3°2.394 75.1 11.3 77 9.7
2008-01-30 09:06:49 51°20.517 3°2.417 75.8 11.1 68 9.5
2008-01-30 09:06:54 51°20.52 3°2.441 74.7 10.9 78 9.4
2008-01-30 09:06:59 51°20.524 3°2.464 76.3 11 74 9.3
2008-01-30 09:07:04 51°20.529 3°2.487 77.2 10.9 73 9.5
2008-01-30 09:07:09 51°20.532 3°2.511 75.6 11.1 77 9.4
2008-01-30 09:07:14 51°20.538 3°2.534 77.5 11.1 69 9.4
2008-01-30 09:07:19 51°20.542 3°2.557 74.3 10.8 75 9.3
2008-01-30 09:07:24 51°20.546 3°2.582 75.3 11.2 76 9.5
2008-01-30 09:07:29 51°20.551 3°2.604 76.5 11 71 9.3
2008-01-30 09:07:34 51°20.554 3°2.629 75.4 11.1 79 9.2
2008-01-30 09:07:39 51°20.559 3°2.651 78 11 69 9.5
2008-01-30 09:07:44 51°20.562 3°2.676 75.4 11.2 81 9.5
2008-01-30 09:07:49 51°20.567 3°2.699 77.4 11 71 9.5
2008-01-30 09:07:54 51°20.57 3°2.722 75.5 10.9 78 9.4
2008-01-30 09:07:59 51°20.574 3°2.746 77.8 11 75 9.3
2008-01-30 09:08:04 51°20.577 3°2.77 78.1 11.2 79 9.4
2008-01-30 09:08:09 51°20.581 3°2.793 77.4 10.9 73 9.3
2008-01-30 09:08:14 51°20.584 3°2.818 77.6 11.1 81 9.2
2008-01-30 09:08:19 51°20.589 3°2.841 79.3 11.1 71 9.1
2008-01-30 09:08:24 51°20.591 3°2.865 77.4 11.3 83 9.3
2008-01-30 09:08:29 51°20.596 3°2.888 79 11 71 9.4
2008-01-30 09:08:34 51°20.599 3°2.912 76.9 11 79 9.3
2008-01-30 09:08:39 51°20.603 3°2.936 77.8 11.1 77 9.3
2008-01-30 09:08:44 51°20.608 3°2.959 78.1 11 72 9.5
2008-01-30 09:08:49 51°20.61 3°2.983 75.6 11.1 78 9.3
2008-01-30 09:08:54 51°20.616 3°3.006 78.9 10.8 70 9.4
2008-01-30 09:08:59 51°20.619 3°3.03 74 11.1 76 9.3
2008-01-30 09:09:04 51°20.624 3°3.053 76.4 11.1 72 9.3
2008-01-30 09:09:09 51°20.626 3°3.077 76.1 11.1 80 9.2
2008-01-30 09:09:14 51°20.631 3°3.101 78.5 11.1 72 9.3
2008-01-30 09:09:19 51°20.634 3°3.124 77.1 11 79 9.2
2008-01-30 09:09:24 51°20.637 3°3.149 78.6 11.2 79 9.4
2008-01-30 09:09:29 51°20.64 3°3.173 79.9 11 77 9.5
2008-01-30 09:09:34 51°20.642 3°3.197 79.8 11.1 82 9.2
2008-01-30 09:09:39 51°20.646 3°3.221 81.8 11 77 9.3
2008-01-30 09:09:44 51°20.647 3°3.246 79.8 11.3 84 9.2
2008-01-30 09:09:49 51°20.652 3°3.269 82.1 11.1 73 9.4
2008-01-30 09:09:54 51°20.653 3°3.293 77.9 11.1 84 9.3
2008-01-30 09:09:59 51°20.657 3°3.317 81.8 11 76 9.3
2008-01-30 09:10:04 51°20.659 3°3.341 80.6 11 81 9.3
2008-01-30 09:10:09 51°20.661 3°3.365 82 11.2 79 9.2
2008-01-30 09:10:14 51°20.666 3°3.388 80.8 10.8 74 9.6
2008-01-30 09:10:19 51°20.667 3°3.413 77.4 11.2 85 9.5
2008-01-30 09:10:24 51°20.671 3°3.437 81.5 11.2 74 9.6
2008-01-30 09:10:29 51°20.673 3°3.462 80.2 11.5 85 9.5
2008-01-30 09:10:34 51°20.677 3°3.486 82 11 72 9.3
2008-01-30 09:10:39 51°20.679 3°3.51 78.5 11 83 9.4
2008-01-30 09:10:44 51°20.682 3°3.534 80.5 11.2 76 9.2
2008-01-30 09:10:49 51°20.686 3°3.558 80 11 79 9.2
2008-01-30 09:10:54 51°20.689 3°3.582 78.5 10.9 75 9.2
2008-01-30 09:10:59 51°20.693 3°3.606 79.1 11.1 78 9.2
2008-01-30 09:11:04 51°20.697 3°3.63 77.8 11.3 74 9.2
2008-01-30 09:11:09 51°20.701 3°3.654 77.4 11.3 75 9.2
2008-01-30 09:11:14 51°20.704 3°3.679 76.9 11.3 78 9.3
2008-01-30 09:11:19 51°20.709 3°3.703 78.3 11.4 74 9.3
2008-01-30 09:11:24 51°20.713 3°3.727 76.6 11.2 73 9.2
2008-01-30 09:11:29 51°20.716 3°3.752 76.1 11.6 81 9.1
2008-01-30 09:11:34 51°20.722 3°3.776 78.8 11.5 68 9.2
2008-01-30 09:11:39 51°20.726 3°3.801 73.4 11.6 77 9.1
2008-01-30 09:11:44 51°20.731 3°3.825 75.2 11.4 72 9.1
2008-01-30 09:11:49 51°20.733 3°3.85 76.1 11.6 81 9.2
2008-01-30 09:11:54 51°20.738 3°3.874 78.4 11.7 72 9.3
2008-01-30 09:11:59 51°20.739 3°3.9 77.2 11.6 83 8.9
2008-01-30 09:12:04 51°20.742 3°3.925 81.4 11.6 82 8.9
2008-01-30 09:12:09 51°20.745 3°3.95 81.8 11.6 79 9
2008-01-30 09:12:14 51°20.747 3°3.975 80.3 11.4 83 9.1
2008-01-30 09:12:19 51°20.749 3°4.002 82.6 11.7 83 9.1
2008-01-30 09:12:24 51°20.753 3°4.026 82.2 11.3 77 9.2
2008-01-30 09:12:29 51°20.753 3°4.052 79.3 11.7 87 9.2
2008-01-30 09:12:34 51°20.755 3°4.078 84.9 11.9 81 9
2008-01-30 09:12:39 51°20.759 3°4.101 81.9 11 79 9.5
2008-01-30 09:12:44 51°20.758 3°4.127 82.4 11.7 91 9
2008-01-30 09:12:49 51°20.762 3°4.153 87.8 12 76 9
2008-01-30 09:12:54 51°20.764 3°4.178 82 11.2 82 8.8
2008-01-30 09:12:59 51°20.767 3°4.202 80.9 11.3 82 9.1
2008-01-30 09:13:04 51°20.769 3°4.228 82.5 11.7 80 9.2
2008-01-30 09:13:09 51°20.773 3°4.253 80.7 11.5 78 9.3
2008-01-30 09:13:14 51°20.776 3°4.278 79 11.4 80 9.4
2008-01-30 09:13:19 51°20.778 3°4.303 80.5 11.5 79 9
2008-01-30 09:13:24 51°20.781 3°4.329 80.2 11.6 84 9.1
2008-01-30 09:13:29 51°20.783 3°4.355 81.3 11.9 81 9.1
2008-01-30 09:13:34 51°20.787 3°4.38 82 11.5 77 8.9
2008-01-30 09:13:39 51°20.788 3°4.404 79.3 11.2 83 9.1
2008-01-30 09:13:44 51°20.79 3°4.43 83 11.7 83 9
2008-01-30 09:13:49 51°20.795 3°4.455 81.9 11.4 77 9.2
2008-01-30 09:13:54 51°20.796 3°4.48 79.1 11.6 84 8.9
2008-01-30 09:13:59 51°20.799 3°4.506 83.1 11.9 78 9
2008-01-30 09:14:04 51°20.802 3°4.531 80.2 11.3 78 8.8
2008-01-30 09:14:09 51°20.804 3°4.557 79.2 11.8 86 9.1
2008-01-30 09:14:14 51°20.809 3°4.581 82.7 11.8 72 9.2
2008-01-30 09:14:19 51°20.811 3°4.606 77.6 11.4 81 8.9
2008-01-30 09:14:24 51°20.813 3°4.631 79.1 11.4 81 8.9
2008-01-30 09:14:29 51°20.818 3°4.656 82.1 11.6 78 8.9
2008-01-30 09:14:34 51°20.821 3°4.681 78.8 11.6 76 8.9
2008-01-30 09:14:39 51°20.824 3°4.707 78.3 11.5 80 8.9
2008-01-30 09:14:44 51°20.828 3°4.731 78.7 11.3 77 9.1
2008-01-30 09:14:49 51°20.831 3°4.756 77.7 11.5 79 9
2008-01-30 09:14:54 51°20.835 3°4.781 78.7 11.8 74 8.7
2008-01-30 09:14:59 51°20.839 3°4.806 76.7 11.6 75 8.7
2008-01-30 09:15:04 51°20.843 3°4.83 75.1 11.3 77 9
2008-01-30 09:15:09 51°20.847 3°4.854 76.5 11.3 76 9.1
2008-01-30 09:15:14 51°20.85 3°4.88 77.2 11.5 76 8.9
2008-01-30 09:15:19 51°20.855 3°4.904 76.9 11.6 76 8.9
2008-01-30 09:15:24 51°20.858 3°4.929 76.9 11.4 76 8.8
2008-01-30 09:15:29 51°20.862 3°4.953 75.9 11.3 79 9.1
2008-01-30 09:15:34 51°20.865 3°4.978 77.6 11.6 75 8.7
2008-01-30 09:15:39 51°20.871 3°5.002 77.6 11.4 73 8.6
2008-01-30 09:15:44 51°20.873 3°5.027 74.3 11.2 81 8.7
2008-01-30 09:15:49 51°20.877 3°5.051 78.8 11.4 73 8.9
2008-01-30 09:15:54 51°20.88 3°5.077 76.8 11.8 83 9
2008-01-30 09:15:59 51°20.885 3°5.101 78.6 11.4 72 9.1
2008-01-30 09:16:04 51°20.886 3°5.126 76.6 11.1 83 8.9
2008-01-30 09:16:09 51°20.89 3°5.15 79.2 11.5 79 9
2008-01-30 09:16:14 51°20.892 3°5.176 80 11.6 78 8.9
2008-01-30 09:16:19 51°20.897 3°5.2 78 11.2 77 9
2008-01-30 09:16:24 51°20.898 3°5.225 78.4 11.4 82 8.9
2008-01-30 09:16:29 51°20.902 3°5.25 81.8 11.6 80 8.7
2008-01-30 09:16:34 51°20.904 3°5.276 80.2 11.6 80 8.8
2008-01-30 09:16:39 51°20.909 3°5.3 79.8 11.4 76 9
2008-01-30 09:16:44 51°20.91 3°5.325 78.1 11.3 80 8.8
2008-01-30 09:16:49 51°20.914 3°5.351 79.8 11.8 81 8.8
2008-01-30 09:16:54 51°20.918 3°5.376 79.1 11.5 76 8.8
2008-01-30 09:16:59 51°20.919 3°5.401 77.6 11.5 83 8.7
2008-01-30 09:17:04 51°20.923 3°5.426 81.4 11.6 74 8.8
2008-01-30 09:17:09 51°20.925 3°5.451 79.3 11.3 82 8.7
2008-01-30 09:17:14 51°20.928 3°5.476 80 11.7 81 8.8
2008-01-30 09:17:19 51°20.932 3°5.501 81.1 11.7 72 8.8
2008-01-30 09:17:24 51°20.935 3°5.526 76.5 11.3 80 8.9
2008-01-30 09:17:29 51°20.938 3°5.55 79.1 11.4 78 8.8
2008-01-30 09:17:34 51°20.941 3°5.575 79 11.6 79 8.8
2008-01-30 09:17:39 51°20.945 3°5.599 78.3 11.2 76 8.9
2008-01-30 09:17:44 51°20.947 3°5.625 78.3 11.8 83 8.7
2008-01-30 09:17:49 51°20.954 3°5.649 79.2 11.5 68 9
2008-01-30 09:17:54 51°20.955 3°5.674 73.7 11.5 84 8.8
2008-01-30 09:17:59 51°20.961 3°5.698 78.8 11.5 71 9
2008-01-30 09:18:04 51°20.963 3°5.723 76.5 11.5 79 8.6
2008-01-30 09:18:09 51°20.968 3°5.747 75.9 11.3 76 8.7
2008-01-30 09:18:14 51°20.971 3°5.773 77 11.7 77 8.7
2008-01-30 09:18:19 51°20.976 3°5.798 77.5 11.7 74 8.7
2008-01-30 09:18:24 51°20.98 3°5.821 75.3 11 74 8.8
2008-01-30 09:18:29 51°20.982 3°5.846 74.9 11.6 80 9
2008-01-30 09:18:34 51°20.987 3°5.872 79.8 11.9 71 8.6
2008-01-30 09:18:39 51°20.992 3°5.895 75.4 11.1 75 8.7
2008-01-30 09:18:44 51°20.996 3°5.919 72.6 11.4 74 8.6
2008-01-30 09:18:49 51°21.001 3°5.944 75.9 11.5 75 8.7
2008-01-30 09:18:54 51°21.004 3°5.968 75.1 11.3 76 8.9
2008-01-30 09:18:59 51°21.008 3°5.992 76.9 11.3 77 8.8
2008-01-30 09:19:04 51°21.012 3°6.017 76.6 11.4 76 9
2008-01-30 09:19:09 51°21.015 3°6.043 77.1 11.8 77 8.9
2008-01-30 09:19:14 51°21.022 3°6.066 75.3 11.3 69 9.2
2008-01-30 09:19:19 51°21.023 3°6.09 72.8 11.2 82 8.8
2008-01-30 09:19:24 51°21.028 3°6.115 78.5 11.6 73 8.8
2008-01-30 09:19:29 51°21.032 3°6.14 75.7 11.5 75 8.7
2008-01-30 09:19:34 51°21.036 3°6.164 74.7 11.3 78 8.9
2008-01-30 09:19:39 51°21.041 3°6.187 76.2 11.1 70 8.8
2008-01-30 09:19:44 51°21.044 3°6.212 74.3 11.5 79 8.8
2008-01-30 09:19:49 51°21.049 3°6.235 75.4 11.2 72 8.8